createdAt,value
2023-09-20T00:00:37.906Z,1.83
2023-09-20T00:03:05.406Z,1.80
2023-09-20T00:05:34.160Z,2.20
2023-09-20T00:08:03.579Z,2.30
2023-09-20T00:10:32.425Z,1.85
2023-09-20T00:12:58.988Z,2.05
2023-09-20T00:15:25.734Z,2.60
2023-09-20T00:17:54.330Z,1.70
2023-09-20T00:20:21.018Z,1.70
2023-09-20T00:22:48.469Z,1.88
2023-09-20T00:25:16.153Z,2.30
2023-09-20T00:27:47.447Z,1.80
2023-09-20T00:30:19.355Z,2.20
2023-09-20T00:32:46.858Z,2.00
2023-09-20T00:35:14.703Z,1.90
2023-09-20T00:37:42.963Z,1.90
2023-09-20T00:40:32.675Z,2.10
2023-09-20T00:43:01.736Z,1.80
2023-09-20T00:45:29.321Z,1.92
2023-09-20T00:47:57.967Z,2.20
2023-09-20T00:50:28.404Z,2.00
2023-09-20T00:52:56.169Z,2.10
2023-09-20T00:55:25.368Z,2.70
2023-09-20T00:57:55.723Z,2.22
2023-09-20T01:00:30.595Z,1.83
2023-09-20T01:02:58.973Z,2.00
2023-09-20T01:05:46.195Z,1.80
2023-09-20T01:08:13.397Z,2.20
2023-09-20T01:10:40.110Z,2.00
2023-09-20T01:13:08.111Z,2.60
2023-09-20T01:15:38.215Z,2.00
2023-09-20T01:18:06.195Z,1.90
2023-09-20T01:20:33.735Z,1.70
2023-09-20T01:23:03.947Z,1.60
2023-09-20T01:25:31.641Z,2.10
2023-09-20T01:27:59.799Z,2.25
2023-09-20T01:30:27.511Z,2.10
2023-09-20T01:32:54.923Z,1.70
2023-09-20T01:35:25.378Z,2.40
2023-09-20T01:37:54.041Z,2.40
2023-09-20T01:40:27.223Z,2.03
2023-09-20T01:42:59.426Z,2.00
2023-09-20T01:45:27.325Z,2.35
2023-09-20T01:47:54.598Z,2.38
2023-09-20T01:50:22.160Z,2.60
2023-09-20T01:52:51.744Z,1.85
2023-09-20T01:55:19.948Z,2.10
2023-09-20T01:57:50.739Z,2.80
2023-09-20T02:00:31.621Z,2.40
2023-09-20T02:02:59.097Z,2.33
2023-09-20T02:05:30.691Z,2.28
2023-09-20T02:08:00.272Z,2.50
2023-09-20T02:10:27.276Z,2.20
2023-09-20T02:12:56.112Z,2.70
2023-09-20T02:15:27.003Z,2.20
2023-09-20T02:17:54.199Z,2.20
2023-09-20T02:20:23.935Z,2.00
2023-09-20T02:22:51.793Z,2.57
2023-09-20T02:25:22.249Z,1.77
2023-09-20T02:27:51.247Z,2.10
2023-09-20T02:33:08.709Z,1.90
2023-09-20T02:35:40.402Z,2.10
2023-09-20T02:38:08.575Z,2.10
2023-09-20T02:40:37.207Z,2.40
2023-09-20T02:43:15.732Z,2.08
2023-09-20T02:45:46.967Z,2.28
2023-09-20T02:48:14.936Z,2.40
2023-09-20T02:50:43.772Z,2.15
2023-09-20T02:53:11.169Z,1.90
2023-09-20T02:55:39.498Z,2.00
2023-09-20T02:58:06.229Z,2.75
2023-09-20T03:00:33.672Z,2.00
2023-09-20T03:03:04.593Z,2.50
2023-09-20T03:05:33.368Z,2.50
2023-09-20T03:08:05.498Z,2.08
2023-09-20T03:10:32.790Z,2.20
2023-09-20T03:13:05.042Z,2.30
2023-09-20T03:15:33.249Z,2.00
2023-09-20T03:18:06.485Z,2.17
2023-09-20T03:20:38.411Z,2.30
2023-09-20T03:23:16.250Z,2.30
2023-09-20T03:25:44.077Z,1.92
2023-09-20T03:28:23.384Z,2.08
2023-09-20T03:30:55.000Z,2.20
2023-09-20T03:33:23.923Z,1.90
2023-09-20T03:35:53.561Z,2.40
2023-09-20T03:38:22.696Z,1.80
2023-09-20T03:40:51.565Z,1.70
2023-09-20T03:43:19.090Z,2.00
2023-09-20T03:45:49.064Z,2.03
2023-09-20T03:48:20.362Z,2.30
2023-09-20T03:50:51.994Z,2.20
2023-09-20T03:53:20.055Z,2.30
2023-09-20T03:55:50.570Z,2.00
2023-09-20T03:58:21.463Z,1.92
2023-09-20T04:00:49.158Z,2.00
2023-09-20T04:03:17.494Z,2.13
2023-09-20T04:05:47.000Z,1.80
2023-09-20T04:08:19.388Z,2.00
2023-09-20T04:10:52.727Z,1.98
2023-09-20T04:13:19.961Z,2.10
2023-09-20T04:15:46.796Z,2.50
2023-09-20T04:18:14.602Z,2.10
2023-09-20T04:20:42.889Z,2.38
2023-09-20T04:23:12.228Z,2.20
2023-09-20T04:25:44.647Z,2.00
2023-09-20T04:28:11.669Z,2.90
2023-09-20T04:30:40.199Z,2.70
2023-09-20T04:33:09.098Z,1.95
2023-09-20T04:35:39.854Z,3.00
2023-09-20T04:38:12.728Z,2.27
2023-09-20T04:40:39.834Z,2.50
2023-09-20T04:43:08.668Z,2.10
2023-09-20T04:45:36.790Z,2.10
2023-09-20T04:48:09.080Z,2.00
2023-09-20T04:50:36.818Z,2.10
2023-09-20T04:53:05.129Z,1.90
2023-09-20T04:55:35.674Z,2.00
2023-09-20T04:58:07.358Z,2.10
2023-09-20T05:00:39.501Z,2.00
2023-09-20T05:03:09.892Z,1.80
2023-09-20T05:05:39.327Z,2.10
2023-09-20T05:08:06.416Z,2.40
2023-09-20T05:10:42.644Z,2.10
2023-09-20T05:13:11.820Z,2.30
2023-09-20T05:15:43.657Z,2.70
2023-09-20T05:18:13.086Z,2.17
2023-09-20T05:20:43.753Z,2.08
2023-09-20T05:23:12.203Z,2.58
2023-09-20T05:25:39.193Z,2.30
2023-09-20T05:28:06.688Z,2.25
2023-09-20T05:30:33.697Z,2.43
2023-09-20T05:33:08.833Z,2.20
2023-09-20T05:35:35.526Z,2.28
2023-09-20T05:38:03.594Z,2.60
2023-09-20T05:40:32.087Z,2.53
2023-09-20T05:42:58.796Z,2.20
2023-09-20T05:45:27.321Z,2.00
2023-09-20T05:47:56.928Z,2.97
2023-09-20T05:50:34.583Z,2.30
2023-09-20T05:53:02.423Z,2.00
2023-09-20T05:55:35.640Z,1.95
2023-09-20T05:58:03.319Z,2.40
2023-09-20T06:00:33.374Z,2.10
2023-09-20T06:03:01.095Z,2.30
2023-09-20T06:05:29.645Z,2.80
2023-09-20T06:07:56.694Z,2.05
2023-09-20T06:10:23.870Z,2.20
2023-09-20T06:12:51.799Z,2.30
2023-09-20T06:15:22.278Z,2.65
2023-09-20T06:17:50.087Z,2.23
2023-09-20T06:20:24.306Z,2.40
2023-09-20T06:22:54.635Z,2.22
2023-09-20T06:25:22.200Z,2.38
2023-09-20T06:27:52.650Z,2.00
2023-09-20T06:30:21.998Z,1.90
2023-09-20T06:32:49.602Z,2.00
2023-09-20T06:35:21.445Z,1.80
2023-09-20T06:40:32.458Z,2.03
2023-09-20T06:42:59.809Z,1.92
2023-09-20T06:45:28.275Z,1.67
2023-09-20T06:47:57.018Z,2.15
2023-09-20T06:50:24.504Z,2.00
2023-09-20T06:52:52.605Z,1.98
2023-09-20T06:55:21.372Z,2.10
2023-09-20T06:57:48.973Z,2.40
2023-09-20T07:00:30.791Z,2.30
2023-09-20T07:02:59.012Z,1.90
2023-09-20T07:05:29.908Z,2.20
2023-09-20T07:08:01.041Z,2.03
2023-09-20T07:10:35.253Z,2.00
2023-09-20T07:13:01.974Z,2.03
2023-09-20T07:15:29.939Z,1.85
2023-09-20T07:18:12.472Z,2.22
2023-09-20T07:20:40.372Z,2.10
2023-09-20T07:23:12.367Z,1.88
2023-09-20T07:25:41.218Z,2.15
2023-09-20T07:28:09.167Z,2.00
2023-09-20T07:30:41.754Z,1.90
2023-09-20T07:33:13.498Z,1.70
2023-09-20T07:35:51.499Z,1.80
2023-09-20T07:38:29.465Z,1.90
2023-09-20T07:41:15.699Z,1.90
2023-09-20T07:43:46.145Z,1.80
2023-09-20T07:46:15.766Z,1.60
2023-09-20T07:48:49.383Z,1.60
2023-09-20T07:51:21.660Z,2.05
2023-09-20T07:53:55.801Z,1.90
2023-09-20T07:56:24.401Z,1.70
2023-09-20T07:58:53.489Z,1.70
2023-09-20T08:01:25.713Z,1.80
2023-09-20T08:03:55.678Z,2.40
2023-09-20T08:06:24.707Z,2.00
2023-09-20T08:08:51.425Z,1.77
2023-09-20T08:11:20.561Z,2.03
2023-09-20T08:13:49.599Z,2.03
2023-09-20T08:16:17.052Z,2.10
2023-09-20T08:19:03.608Z,1.75
2023-09-20T08:21:30.919Z,1.80
2023-09-20T08:24:16.324Z,1.60
2023-09-20T08:27:04.203Z,1.80
2023-09-20T08:29:52.952Z,1.70
2023-09-20T08:32:40.026Z,2.30
2023-09-20T08:35:26.397Z,2.30
2023-09-20T08:38:11.890Z,2.33
2023-09-20T08:40:58.507Z,2.05
2023-09-20T08:43:44.834Z,2.00
2023-09-20T08:46:34.956Z,1.80
2023-09-20T08:49:20.913Z,1.83
2023-09-20T08:52:11.793Z,1.90
2023-09-20T08:54:58.431Z,1.80
2023-09-20T08:57:44.279Z,1.70
2023-09-20T09:00:29.450Z,2.08
2023-09-20T09:02:59.332Z,1.90
2023-09-20T09:05:28.643Z,1.80
2023-09-20T09:07:56.418Z,1.98
2023-09-20T09:10:23.559Z,1.88
2023-09-20T09:12:50.164Z,2.17
2023-09-20T09:15:20.011Z,2.70
2023-09-20T09:17:47.765Z,1.80
2023-09-20T09:20:17.080Z,2.00
2023-09-20T09:22:45.229Z,1.60
2023-09-20T09:25:12.396Z,1.60
2023-09-20T09:27:40.624Z,1.70
2023-09-20T09:30:09.382Z,1.70
2023-09-20T09:32:37.097Z,1.63
2023-09-20T09:35:04.296Z,1.50
2023-09-20T09:37:33.732Z,1.90
2023-09-20T09:40:04.118Z,1.50
2023-09-20T09:42:31.010Z,1.40
2023-09-20T09:44:57.912Z,1.70
2023-09-20T09:47:27.478Z,1.40
2023-09-20T09:49:54.300Z,1.70
2023-09-20T09:52:25.013Z,1.40
2023-09-20T09:54:56.753Z,1.30
2023-09-20T09:57:24.731Z,1.60
2023-09-20T09:59:52.205Z,1.10
2023-09-20T10:02:22.729Z,1.20
2023-09-20T10:04:51.573Z,1.38
2023-09-20T10:07:19.888Z,1.20
2023-09-20T10:09:49.778Z,1.30
2023-09-20T10:12:22.623Z,1.40
2023-09-20T10:14:49.875Z,1.20
2023-09-20T10:17:17.476Z,1.10
2023-09-20T10:19:44.220Z,1.40
2023-09-20T10:22:11.882Z,1.20
2023-09-20T10:24:51.807Z,1.30
2023-09-20T10:27:21.115Z,1.27
2023-09-20T10:30:02.429Z,1.30
2023-09-20T10:32:33.091Z,1.33
2023-09-20T10:35:21.944Z,1.23
2023-09-20T10:38:03.874Z,1.40
2023-09-20T10:40:50.404Z,1.27
2023-09-20T10:43:22.065Z,1.30
2023-09-20T10:45:50.722Z,1.30
2023-09-20T10:48:19.127Z,1.40
2023-09-20T10:50:47.270Z,1.42
2023-09-20T10:53:14.127Z,1.00
2023-09-20T10:55:41.246Z,1.30
2023-09-20T10:58:08.718Z,1.20
2023-09-20T11:00:38.140Z,1.40
2023-09-20T11:03:07.985Z,1.40
2023-09-20T11:05:35.563Z,1.50
2023-09-20T11:08:08.520Z,1.20
2023-09-20T11:10:35.840Z,1.20
2023-09-20T11:13:04.432Z,1.20
2023-09-20T11:15:32.247Z,1.15
2023-09-20T11:18:00.392Z,1.30
2023-09-20T11:20:30.108Z,1.30
2023-09-20T11:22:56.770Z,1.40
2023-09-20T11:25:23.449Z,1.13
2023-09-20T11:27:52.612Z,1.20
2023-09-20T11:30:19.834Z,1.40
2023-09-20T11:32:46.552Z,1.30
2023-09-20T11:35:33.517Z,1.40
2023-09-20T11:38:00.492Z,1.10
2023-09-20T11:40:27.033Z,1.40
2023-09-20T11:42:53.672Z,1.40
2023-09-20T11:45:40.305Z,1.52
2023-09-20T11:48:16.356Z,1.30
2023-09-20T11:50:45.921Z,1.30
2023-09-20T11:53:14.172Z,1.30
2023-09-20T11:55:42.297Z,1.30
2023-09-20T11:58:11.471Z,1.20
2023-09-20T12:00:39.228Z,1.25
2023-09-20T12:03:07.057Z,1.20
2023-09-20T12:05:34.232Z,1.20
2023-09-20T12:08:03.176Z,1.23
2023-09-20T12:10:31.035Z,1.30
2023-09-20T12:12:59.229Z,1.20
2023-09-20T12:15:26.396Z,1.25
2023-09-20T12:17:54.588Z,1.30
2023-09-20T12:20:21.515Z,1.50
2023-09-20T12:22:48.795Z,2.05
2023-09-20T12:25:18.124Z,1.40
2023-09-20T12:27:45.004Z,1.40
2023-09-20T12:30:14.104Z,1.40
2023-09-20T12:32:43.781Z,1.70
2023-09-20T12:35:10.932Z,1.38
2023-09-20T12:37:37.489Z,1.65
2023-09-20T12:40:11.467Z,1.52
2023-09-20T12:42:40.204Z,1.20
2023-09-20T12:45:08.871Z,1.50
2023-09-20T12:47:36.485Z,1.53
2023-09-20T12:50:04.727Z,1.50
2023-09-20T12:52:32.911Z,1.30
2023-09-20T12:55:00.175Z,1.30
2023-09-20T12:57:27.418Z,1.90
2023-09-20T12:59:58.210Z,1.10
2023-09-20T13:02:28.676Z,1.50
2023-09-20T13:05:00.852Z,1.30
2023-09-20T13:07:30.561Z,1.50
2023-09-20T13:09:59.937Z,1.70
2023-09-20T13:12:26.767Z,1.52
2023-09-20T13:14:54.848Z,1.50
2023-09-20T13:17:21.972Z,1.50
2023-09-20T13:19:48.799Z,1.43
2023-09-20T13:22:15.579Z,1.60
2023-09-20T13:24:43.626Z,1.60
2023-09-20T13:27:10.771Z,1.98
2023-09-20T13:29:37.824Z,1.98
2023-09-20T13:32:09.524Z,1.67
2023-09-20T13:34:36.097Z,1.60
2023-09-20T13:37:02.830Z,2.00
2023-09-20T13:39:29.450Z,1.80
2023-09-20T13:41:56.154Z,1.50
2023-09-20T13:44:24.132Z,1.60
2023-09-20T13:46:51.876Z,1.50
2023-09-20T13:49:19.985Z,1.43
2023-09-20T13:51:46.705Z,1.90
2023-09-20T13:54:14.408Z,1.60
2023-09-20T13:56:46.308Z,1.67
2023-09-20T13:59:13.077Z,1.77
2023-09-20T14:01:40.582Z,1.58
2023-09-20T14:04:08.490Z,1.90
2023-09-20T14:06:36.707Z,1.90
2023-09-20T14:09:06.224Z,1.77
2023-09-20T14:11:35.159Z,1.80
2023-09-20T14:14:03.837Z,1.60
2023-09-20T14:16:31.930Z,2.08
2023-09-20T14:18:59.289Z,1.70
2023-09-20T14:21:29.443Z,1.55
2023-09-20T14:24:02.378Z,1.50
2023-09-20T14:26:29.091Z,2.20
2023-09-20T14:28:56.828Z,1.50
2023-09-20T14:31:23.933Z,1.60
2023-09-20T14:33:50.553Z,1.40
2023-09-20T14:36:18.073Z,2.05
2023-09-20T14:38:44.784Z,1.40
2023-09-20T14:41:12.815Z,1.90
2023-09-20T14:43:40.477Z,1.67
2023-09-20T14:46:08.243Z,1.70
2023-09-20T14:48:35.112Z,1.65
2023-09-20T14:51:05.041Z,1.50
2023-09-20T14:53:33.294Z,1.52
2023-09-20T14:56:00.316Z,1.60
2023-09-20T14:58:30.301Z,1.60
2023-09-20T15:00:57.046Z,1.50
2023-09-20T15:03:23.716Z,1.50
2023-09-20T15:05:53.766Z,1.60
2023-09-20T15:08:22.426Z,1.30
2023-09-20T15:10:49.207Z,1.50
2023-09-20T15:13:15.843Z,1.50
2023-09-20T15:15:46.389Z,1.40
2023-09-20T15:18:13.581Z,1.92
2023-09-20T15:20:42.826Z,1.30
2023-09-20T15:23:09.396Z,1.70
2023-09-20T15:25:36.208Z,1.60
2023-09-20T15:28:03.015Z,1.33
2023-09-20T15:30:31.106Z,1.60
2023-09-20T15:32:59.737Z,1.57
2023-09-20T15:35:29.412Z,1.63
2023-09-20T15:37:56.897Z,1.60
2023-09-20T15:40:27.705Z,1.60
2023-09-20T15:42:56.699Z,1.77
2023-09-20T15:45:25.030Z,2.20
2023-09-20T15:47:51.777Z,1.70
2023-09-20T15:50:19.921Z,1.40
2023-09-20T15:52:46.665Z,1.70
2023-09-20T15:55:17.547Z,1.50
2023-09-20T15:57:44.404Z,1.30
2023-09-20T16:00:16.213Z,2.28
2023-09-20T16:02:46.828Z,1.80
2023-09-20T16:05:16.917Z,1.60
2023-09-20T16:07:45.592Z,1.50
2023-09-20T16:10:17.467Z,1.50
2023-09-20T16:12:45.892Z,1.77
2023-09-20T16:15:13.986Z,1.70
2023-09-20T16:17:41.085Z,1.80
2023-09-20T16:20:08.821Z,1.45
2023-09-20T16:22:36.025Z,1.48
2023-09-20T16:25:04.825Z,1.58
2023-09-20T16:27:32.431Z,1.30
2023-09-20T16:29:59.846Z,1.88
2023-09-20T16:32:27.030Z,1.70
2023-09-20T16:34:53.931Z,1.70
2023-09-20T16:37:21.339Z,1.90
2023-09-20T16:39:47.930Z,1.45
2023-09-20T16:42:19.267Z,1.90
2023-09-20T16:44:53.282Z,1.60
2023-09-20T16:47:20.860Z,1.90
2023-09-20T16:49:47.721Z,1.90
2023-09-20T16:52:15.179Z,1.50
2023-09-20T16:54:44.456Z,1.80
2023-09-20T16:57:12.065Z,1.90
2023-09-20T16:59:43.758Z,1.50
2023-09-20T17:02:10.944Z,1.75
2023-09-20T17:04:37.770Z,1.90
2023-09-20T17:07:04.623Z,2.05
2023-09-20T17:09:31.517Z,1.70
2023-09-20T17:11:58.310Z,1.60
2023-09-20T17:14:25.555Z,1.83
2023-09-20T17:16:53.949Z,2.03
2023-09-20T17:19:20.520Z,1.70
2023-09-20T17:21:47.577Z,2.03
2023-09-20T17:24:15.983Z,1.80
2023-09-20T17:26:42.640Z,2.20
2023-09-20T17:29:09.288Z,2.15
2023-09-20T17:31:38.720Z,2.10
2023-09-20T17:34:07.104Z,1.90
2023-09-20T17:36:34.728Z,1.80
2023-09-20T17:39:01.414Z,2.00
2023-09-20T17:41:31.276Z,1.88
2023-09-20T17:43:59.339Z,2.10
2023-09-20T17:46:25.979Z,1.98
2023-09-20T17:48:52.921Z,2.00
2023-09-20T17:51:21.113Z,2.10
2023-09-20T17:53:47.720Z,1.60
2023-09-20T17:56:15.119Z,1.90
2023-09-20T17:58:42.645Z,2.10
2023-09-20T18:01:11.768Z,2.27
2023-09-20T18:03:38.575Z,1.73
2023-09-20T18:06:10.058Z,1.70
2023-09-20T18:08:38.449Z,2.00
2023-09-20T18:11:04.984Z,1.80
2023-09-20T18:13:31.754Z,2.40
2023-09-20T18:15:58.256Z,1.80
2023-09-20T18:18:25.408Z,1.80
2023-09-20T18:20:56.931Z,1.92
2023-09-20T18:23:24.073Z,2.13
2023-09-20T18:25:52.373Z,1.80
2023-09-20T18:28:20.828Z,2.30
2023-09-20T18:30:49.080Z,2.00
2023-09-20T18:33:16.227Z,2.30
2023-09-20T18:35:42.958Z,1.92
2023-09-20T18:38:14.514Z,2.30
2023-09-20T18:40:41.265Z,2.65
2023-09-20T18:43:10.718Z,3.03
2023-09-20T18:45:37.834Z,2.90
2023-09-20T18:48:05.482Z,2.58
2023-09-20T18:50:32.243Z,2.90
2023-09-20T18:52:59.205Z,3.35
2023-09-20T18:55:25.959Z,2.58
2023-09-20T18:57:53.350Z,1.90
2023-09-20T19:00:22.228Z,2.42
2023-09-20T19:02:49.387Z,2.40
2023-09-20T19:05:16.602Z,2.50
2023-09-20T19:07:45.202Z,2.40
2023-09-20T19:10:12.871Z,2.40
2023-09-20T19:12:45.113Z,2.80
2023-09-20T19:15:16.586Z,2.70
2023-09-20T19:17:45.340Z,3.70
2023-09-20T19:20:19.062Z,2.90
2023-09-20T19:22:46.197Z,2.65
2023-09-20T19:25:14.234Z,2.50
2023-09-20T19:27:42.402Z,2.40
2023-09-20T19:30:10.949Z,2.20
2023-09-20T19:32:38.090Z,2.40
2023-09-20T19:35:06.848Z,2.35
2023-09-20T19:37:34.210Z,3.10
2023-09-20T19:40:01.055Z,3.78
2023-09-20T19:42:28.986Z,3.23
2023-09-20T19:44:55.885Z,3.00
2023-09-20T19:47:22.687Z,2.87
2023-09-20T19:49:49.548Z,2.92
2023-09-20T19:52:18.733Z,2.70
2023-09-20T19:54:45.733Z,2.80
2023-09-20T19:57:12.341Z,2.28
2023-09-20T19:59:39.137Z,2.45
2023-09-20T20:02:05.778Z,2.90
2023-09-20T20:04:33.684Z,2.40
2023-09-20T20:07:07.830Z,2.80
2023-09-20T20:09:43.481Z,2.40
2023-09-20T20:12:10.243Z,2.40
2023-09-20T20:14:38.300Z,2.80
2023-09-20T20:17:11.085Z,2.20
2023-09-20T20:19:38.736Z,2.50
2023-09-20T20:22:06.094Z,2.30
2023-09-20T20:24:35.948Z,2.13
2023-09-20T20:27:09.939Z,2.10
2023-09-20T20:29:36.792Z,2.60
2023-09-20T20:32:03.643Z,2.10
2023-09-20T20:34:30.221Z,2.60
2023-09-20T20:36:57.529Z,2.20
2023-09-20T20:39:24.125Z,2.30
2023-09-20T20:41:52.161Z,2.40
2023-09-20T20:44:20.224Z,1.98
2023-09-20T20:46:48.032Z,2.90
2023-09-20T20:49:15.275Z,2.30
2023-09-20T20:51:42.278Z,2.50
2023-09-20T20:54:12.991Z,1.90
2023-09-20T20:56:40.384Z,2.22
2023-09-20T20:59:10.727Z,2.50
2023-09-20T21:01:38.847Z,2.47
2023-09-20T21:04:05.817Z,2.13
2023-09-20T21:06:35.701Z,2.20
2023-09-20T21:09:02.376Z,1.90
2023-09-20T21:11:29.188Z,2.05
2023-09-20T21:13:56.866Z,2.42
2023-09-20T21:16:24.612Z,2.78
2023-09-20T21:18:52.710Z,2.30
2023-09-20T21:21:19.945Z,1.95
2023-09-20T21:23:46.717Z,2.10
2023-09-20T21:26:13.716Z,2.20
2023-09-20T21:28:41.695Z,2.20
2023-09-20T21:31:12.657Z,2.22
2023-09-20T21:33:39.949Z,2.42
2023-09-20T21:36:08.070Z,2.20
2023-09-20T21:38:35.071Z,2.30
2023-09-20T21:41:01.684Z,2.10
2023-09-20T21:43:28.546Z,2.00
2023-09-20T21:45:55.148Z,2.15
2023-09-20T21:48:22.749Z,2.30
2023-09-20T21:50:49.820Z,2.00
2023-09-20T21:53:17.779Z,2.35
2023-09-20T21:55:44.549Z,1.95
2023-09-20T21:58:11.393Z,2.45
2023-09-20T22:00:38.815Z,2.20
2023-09-20T22:03:06.357Z,2.60
2023-09-20T22:05:34.350Z,2.00
2023-09-20T22:08:04.783Z,2.00
2023-09-20T22:10:42.871Z,1.90
2023-09-20T22:13:10.808Z,2.22
2023-09-20T22:15:38.699Z,2.17
2023-09-20T22:18:26.449Z,2.10
2023-09-20T22:21:01.498Z,2.15
2023-09-20T22:23:29.557Z,2.00
2023-09-20T22:25:59.640Z,2.00
2023-09-20T22:28:26.654Z,2.10
2023-09-20T22:30:53.265Z,1.93
2023-09-20T22:33:19.946Z,2.10
2023-09-20T22:36:03.693Z,2.20
2023-09-20T22:38:36.481Z,2.10
2023-09-20T22:41:04.370Z,2.10
2023-09-20T22:43:35.102Z,2.50
2023-09-20T22:46:02.368Z,2.10
2023-09-20T22:48:29.673Z,2.03
2023-09-20T22:50:57.081Z,1.90
2023-09-20T22:53:24.801Z,1.90
2023-09-20T22:55:53.326Z,2.22
2023-09-20T22:58:21.956Z,1.70
2023-09-20T23:00:49.349Z,1.90
2023-09-20T23:03:18.728Z,1.60
2023-09-20T23:05:48.737Z,1.85
2023-09-20T23:08:21.328Z,2.28
2023-09-20T23:10:49.772Z,1.50
2023-09-20T23:13:20.446Z,1.90
2023-09-20T23:15:53.625Z,1.85
2023-09-20T23:18:23.276Z,1.83
2023-09-20T23:20:50.425Z,2.08
2023-09-20T23:23:18.334Z,1.67
2023-09-20T23:25:45.177Z,2.00
2023-09-20T23:28:12.637Z,2.10
2023-09-20T23:30:43.284Z,1.77
2023-09-20T23:33:15.482Z,1.75
2023-09-20T23:35:52.521Z,1.87
2023-09-20T23:38:32.997Z,1.60
2023-09-20T23:41:02.259Z,1.90
2023-09-20T23:43:31.871Z,2.20
2023-09-20T23:45:59.465Z,2.15
2023-09-20T23:48:28.149Z,2.07
2023-09-20T23:51:00.569Z,2.90
2023-09-20T23:53:28.485Z,1.70
2023-09-20T23:55:55.050Z,1.80
2023-09-20T23:58:23.442Z,1.90
